Time,TemperatureF,DewpointF,PressureIn,WindDirection,WindDirectionDegrees,WindSpeedMPH,WindSpeedGustMPH,Humidity,HourlyPrecipIn,Conditions,Clouds,dailyrainin,SoftwareType,DateUTC
2013-02-08 00:00:00,22.3,-8.3,30.40,North,0,0.0,0.0,25,0.00,,,0.00,WUHU216WMR968SP,2013-02-08 05:00:00,
2013-02-08 00:01:00,22.1,-8.5,30.40,North,0,0.0,0.0,25,0.00,,,0.00,WUHU216WMR968SP,2013-02-08 05:01:00,
2013-02-08 00:06:00,21.6,-8.9,30.37,North,0,0.0,0.0,25,0.00,,,0.00,WUHU216WMR968SP,2013-02-08 05:06:00,
2013-02-08 00:11:00,21.2,-9.3,30.37,North,0,0.0,0.0,25,0.00,,,0.00,WUHU216WMR968SP,2013-02-08 05:11:00,
2013-02-08 00:16:00,20.7,-9.7,30.37,North,0,0.0,0.0,25,0.00,,,0.00,WUHU216WMR968SP,2013-02-08 05:16:00,
2013-02-08 00:21:00,19.9,-10.4,30.37,North,0,0.0,0.0,25,0.00,,,0.00,WUHU216WMR968SP,2013-02-08 05:21:00,
2013-02-08 00:26:00,19.6,-10.7,30.37,North,0,0.0,0.0,25,0.00,,,0.00,WUHU216WMR968SP,2013-02-08 05:26:00,
2013-02-08 00:31:00,19.6,-9.1,30.37,North,0,0.0,0.0,27,0.00,,,0.00,WUHU216WMR968SP,2013-02-08 05:31:00,
2013-02-08 00:36:00,19.9,-8.9,30.37,North,0,0.0,0.0,27,0.00,,,0.00,WUHU216WMR968SP,2013-02-08 05:36:00,
2013-02-08 00:41:00,20.1,-8.7,30.37,North,0,0.0,0.0,27,0.00,,,0.00,WUHU216WMR968SP,2013-02-08 05:41:00,
2013-02-08 00:46:00,19.4,-10.8,30.37,North,0,0.0,0.0,25,0.00,,,0.00,WUHU216WMR968SP,2013-02-08 05:46:00,
2013-02-08 00:51:00,19.2,-11.0,30.37,North,0,0.0,0.0,25,0.00,,,0.00,WUHU216WMR968SP,2013-02-08 05:51:00,
2013-02-08 00:56:00,19.0,-11.2,30.37,North,0,0.0,0.0,25,0.00,,,0.00,WUHU216WMR968SP,2013-02-08 05:56:00,
2013-02-08 01:01:00,18.7,-11.4,30.37,North,0,0.0,0.0,25,0.00,,,0.00,WUHU216WMR968SP,2013-02-08 06:01:00,
2013-02-08 01:06:00,19.0,-11.2,30.37,North,0,0.0,0.0,25,0.00,,,0.00,WUHU216WMR968SP,2013-02-08 06:06:00,
2013-02-08 01:11:00,18.7,-11.4,30.37,North,0,0.0,0.0,25,0.00,,,0.00,WUHU216WMR968SP,2013-02-08 06:11:00,
2013-02-08 01:16:00,18.5,-11.6,30.37,North,0,0.0,0.0,25,0.00,,,0.00,WUHU216WMR968SP,2013-02-08 06:16:00,
2013-02-08 01:21:00,18.7,-11.4,30.37,North,0,0.0,0.0,25,0.00,,,0.00,WUHU216WMR968SP,2013-02-08 06:21:00,
2013-02-08 01:26:00,18.7,-11.4,30.37,North,0,0.0,0.0,25,0.00,,,0.00,WUHU216WMR968SP,2013-02-08 06:26:00,
2013-02-08 01:31:00,18.5,-11.6,30.37,North,0,0.0,0.0,25,0.00,,,0.00,WUHU216WMR968SP,2013-02-08 06:31:00,
2013-02-08 01:36:00,18.5,-11.6,30.37,North,0,0.0,0.0,25,0.00,,,0.00,WUHU216WMR968SP,2013-02-08 06:36:00,
2013-02-08 01:41:00,18.3,-11.8,30.37,North,0,0.0,0.0,25,0.00,,,0.00,WUHU216WMR968SP,2013-02-08 06:41:00,
2013-02-08 01:46:00,18.5,-11.6,30.37,North,0,0.0,0.0,25,0.00,,,0.00,WUHU216WMR968SP,2013-02-08 06:46:00,
2013-02-08 01:51:00,18.5,-11.6,30.37,North,0,0.0,0.0,25,0.00,,,0.00,WUHU216WMR968SP,2013-02-08 06:51:00,
2013-02-08 01:56:00,18.1,-11.9,30.37,North,0,0.0,0.0,25,0.00,,,0.00,WUHU216WMR968SP,2013-02-08 06:56:00,
2013-02-08 02:01:00,18.0,-12.0,30.37,North,0,0.0,0.0,25,0.00,,,0.00,WUHU216WMR968SP,2013-02-08 07:01:00,
2013-02-08 02:06:00,18.0,-12.0,30.37,North,0,0.0,0.0,25,0.00,,,0.00,WUHU216WMR968SP,2013-02-08 07:06:00,
2013-02-08 02:11:00,18.0,-12.0,30.37,North,0,0.0,0.0,25,0.00,,,0.00,WUHU216WMR968SP,2013-02-08 07:11:00,
2013-02-08 02:16:00,17.8,-12.2,30.37,North,0,0.0,0.0,25,0.00,,,0.00,WUHU216WMR968SP,2013-02-08 07:16:00,
2013-02-08 02:21:00,18.0,-12.0,30.37,North,0,0.0,0.0,25,0.00,,,0.00,WUHU216WMR968SP,2013-02-08 07:21:00,
2013-02-08 02:26:00,18.1,-11.9,30.37,North,0,0.0,0.0,25,0.00,,,0.00,WUHU216WMR968SP,2013-02-08 07:26:00,
2013-02-08 02:31:00,17.8,-12.2,30.37,North,0,0.0,0.0,25,0.00,,,0.00,WUHU216WMR968SP,2013-02-08 07:31:00,
2013-02-08 02:36:00,17.8,-12.2,30.37,North,0,0.0,0.0,25,0.00,,,0.00,WUHU216WMR968SP,2013-02-08 07:36:00,
2013-02-08 02:41:00,17.6,-11.6,30.37,North,0,0.0,0.0,26,0.00,,,0.00,WUHU216WMR968SP,2013-02-08 07:41:00,
2013-02-08 02:46:00,17.6,-11.6,30.37,North,0,0.0,0.0,26,0.00,,,0.00,WUHU216WMR968SP,2013-02-08 07:46:00,
2013-02-08 02:51:00,17.6,-11.6,30.34,North,0,0.0,0.0,26,0.00,,,0.00,WUHU216WMR968SP,2013-02-08 07:51:00,
2013-02-08 02:56:00,17.8,-12.2,30.34,North,0,0.0,0.0,25,0.00,,,0.00,WUHU216WMR968SP,2013-02-08 07:56:00,
2013-02-08 03:01:00,17.8,-12.2,30.34,North,0,0.0,0.0,25,0.00,,,0.00,WUHU216WMR968SP,2013-02-08 08:01:00,
2013-02-08 03:07:00,17.4,-11.8,30.34,North,0,0.0,0.0,26,0.00,,,0.00,WUHU216WMR968SP,2013-02-08 08:07:00,
2013-02-08 03:12:00,17.4,-11.8,30.34,North,0,0.0,0.0,26,0.00,,,0.00,WUHU216WMR968SP,2013-02-08 08:12:00,
2013-02-08 03:17:00,17.2,-12.0,30.34,North,0,0.0,0.0,26,0.00,,,0.00,WUHU216WMR968SP,2013-02-08 08:17:00,
2013-02-08 03:22:00,17.4,-11.8,30.34,North,0,0.0,0.0,26,0.00,,,0.00,WUHU216WMR968SP,2013-02-08 08:22:00,
2013-02-08 03:27:00,17.4,-11.8,30.34,North,0,0.0,0.0,26,0.00,,,0.00,WUHU216WMR968SP,2013-02-08 08:27:00,
2013-02-08 03:32:00,17.6,-11.6,30.34,North,0,0.0,0.0,26,0.00,,,0.00,WUHU216WMR968SP,2013-02-08 08:32:00,
2013-02-08 03:37:00,17.4,-11.8,30.34,North,0,0.0,0.0,26,0.00,,,0.00,WUHU216WMR968SP,2013-02-08 08:37:00,
2013-02-08 03:42:00,17.4,-11.8,30.34,North,0,0.0,0.0,26,0.00,,,0.00,WUHU216WMR968SP,2013-02-08 08:42:00,
2013-02-08 03:47:00,17.6,-10.2,30.34,North,0,0.0,0.0,28,0.00,,,0.00,WUHU216WMR968SP,2013-02-08 08:47:00,
2013-02-08 03:52:00,17.4,-11.8,30.31,North,0,0.0,0.0,26,0.00,,,0.00,WUHU216WMR968SP,2013-02-08 08:52:00,
2013-02-08 03:57:00,17.1,-10.6,30.31,North,0,0.0,0.0,28,0.00,,,0.00,WUHU216WMR968SP,2013-02-08 08:57:00,
2013-02-08 04:02:00,17.1,-10.6,30.31,North,0,0.0,0.0,28,0.00,,,0.00,WUHU216WMR968SP,2013-02-08 09:02:00,
2013-02-08 04:07:00,16.9,-10.8,30.31,North,0,0.0,0.0,28,0.00,,,0.00,WUHU216WMR968SP,2013-02-08 09:07:00,
2013-02-08 04:12:00,16.7,-10.9,30.31,North,0,0.0,0.0,28,0.00,,,0.00,WUHU216WMR968SP,2013-02-08 09:12:00,
2013-02-08 04:17:00,16.0,-11.5,30.31,North,0,0.0,0.0,28,0.00,,,0.00,WUHU216WMR968SP,2013-02-08 09:17:00,
2013-02-08 04:22:00,16.2,-9.4,30.31,North,0,0.0,0.0,31,0.00,,,0.00,WUHU216WMR968SP,2013-02-08 09:22:00,
2013-02-08 04:27:00,16.2,-9.4,30.31,North,0,0.0,0.0,31,0.00,,,0.00,WUHU216WMR968SP,2013-02-08 09:27:00,
2013-02-08 04:32:00,16.0,-8.3,30.31,North,0,0.0,0.0,33,0.00,,,0.00,WUHU216WMR968SP,2013-02-08 09:32:00,
2013-02-08 04:37:00,15.8,-7.8,30.31,North,0,0.0,0.0,34,0.00,,,0.00,WUHU216WMR968SP,2013-02-08 09:37:00,
2013-02-08 04:42:00,15.8,-7.8,30.31,North,0,0.0,0.0,34,0.00,,,0.00,WUHU216WMR968SP,2013-02-08 09:42:00,
2013-02-08 04:47:00,15.8,-7.8,30.31,North,0,0.0,0.0,34,0.00,,,0.00,WUHU216WMR968SP,2013-02-08 09:47:00,
2013-02-08 04:52:00,15.8,-7.8,30.31,North,0,0.0,0.0,34,0.00,,,0.00,WUHU216WMR968SP,2013-02-08 09:52:00,
2013-02-08 04:57:00,15.8,-7.2,30.31,North,0,0.0,0.0,35,0.00,,,0.00,WUHU216WMR968SP,2013-02-08 09:57:00,
2013-02-08 05:02:00,15.4,-7.6,30.31,North,0,0.0,0.0,35,0.00,,,0.00,WUHU216WMR968SP,2013-02-08 10:02:00,
2013-02-08 05:07:00,15.1,-7.3,30.31,North,0,0.0,0.0,36,0.00,,,0.00,WUHU216WMR968SP,2013-02-08 10:07:00,
2013-02-08 05:12:00,15.1,-6.2,30.31,North,0,0.0,0.0,38,0.00,,,0.00,WUHU216WMR968SP,2013-02-08 10:12:00,
2013-02-08 05:17:00,14.7,-4.9,30.31,North,0,0.0,0.0,41,0.00,,,0.00,WUHU216WMR968SP,2013-02-08 10:17:00,
2013-02-08 05:22:00,14.5,-3.6,30.31,North,0,0.0,0.0,44,0.00,,,0.00,WUHU216WMR968SP,2013-02-08 10:22:00,
2013-02-08 05:27:00,14.4,-3.2,30.31,North,0,0.0,0.0,45,0.00,,,0.00,WUHU216WMR968SP,2013-02-08 10:27:00,
2013-02-08 05:32:00,14.4,-2.7,30.31,North,0,0.0,0.0,46,0.00,,,0.00,WUHU216WMR968SP,2013-02-08 10:32:00,
2013-02-08 05:37:00,14.2,-2.5,30.31,North,0,0.0,0.0,47,0.00,,,0.00,WUHU216WMR968SP,2013-02-08 10:37:00,
2013-02-08 05:42:00,14.2,-2.5,30.31,North,0,0.0,0.0,47,0.00,,,0.00,WUHU216WMR968SP,2013-02-08 10:42:00,
2013-02-08 05:47:00,14.2,-2.0,30.31,North,0,0.0,0.0,48,0.00,,,0.00,WUHU216WMR968SP,2013-02-08 10:47:00,
2013-02-08 05:52:00,13.8,-1.9,30.31,North,0,0.0,0.0,49,0.00,,,0.00,WUHU216WMR968SP,2013-02-08 10:52:00,
2013-02-08 05:57:00,13.6,-2.1,30.31,North,0,0.0,0.0,49,0.00,,,0.00,WUHU216WMR968SP,2013-02-08 10:57:00,
2013-02-08 06:02:00,13.6,-2.1,30.31,North,0,0.0,0.0,49,0.00,,,0.00,WUHU216WMR968SP,2013-02-08 11:02:00,
2013-02-08 06:07:00,13.6,-2.1,30.31,North,0,0.0,0.0,49,0.00,,,0.00,WUHU216WMR968SP,2013-02-08 11:07:00,
2013-02-08 06:12:00,13.5,-2.2,30.31,North,0,0.0,0.0,49,0.00,,,0.00,WUHU216WMR968SP,2013-02-08 11:12:00,
2013-02-08 06:17:00,13.5,-2.2,30.31,North,0,0.0,0.0,49,0.00,,,0.00,WUHU216WMR968SP,2013-02-08 11:17:00,
2013-02-08 06:22:00,13.5,-2.2,30.31,North,0,0.0,0.0,49,0.00,,,0.00,WUHU216WMR968SP,2013-02-08 11:22:00,
2013-02-08 06:27:00,13.5,-2.2,30.31,North,0,0.0,0.0,49,0.00,,,0.00,WUHU216WMR968SP,2013-02-08 11:27:00,
2013-02-08 06:32:00,13.3,-2.4,30.31,North,0,0.0,0.0,49,0.00,,,0.00,WUHU216WMR968SP,2013-02-08 11:32:00,
2013-02-08 06:37:00,13.3,-2.4,30.31,North,0,0.0,0.0,49,0.00,,,0.00,WUHU216WMR968SP,2013-02-08 11:37:00,
2013-02-08 06:43:00,13.3,-2.4,30.31,North,0,0.0,0.0,49,0.00,,,0.00,WUHU216WMR968SP,2013-02-08 11:43:00,
2013-02-08 06:48:00,13.3,-2.4,30.31,North,0,0.0,0.0,49,0.00,,,0.00,WUHU216WMR968SP,2013-02-08 11:48:00,
2013-02-08 06:53:00,13.3,-2.4,30.31,North,0,0.0,0.0,49,0.00,,,0.00,WUHU216WMR968SP,2013-02-08 11:53:00,
2013-02-08 06:58:00,13.3,-2.4,30.31,North,0,0.0,0.0,49,0.00,,,0.00,WUHU216WMR968SP,2013-02-08 11:58:00,
2013-02-08 07:03:00,13.3,-2.4,30.31,North,0,0.0,0.0,49,0.00,,,0.00,WUHU216WMR968SP,2013-02-08 12:03:00,
2013-02-08 07:08:00,13.3,-2.4,30.31,North,0,0.0,0.0,49,0.00,,,0.00,WUHU216WMR968SP,2013-02-08 12:08:00,
2013-02-08 07:13:00,12.9,-2.8,30.31,North,0,0.0,0.0,49,0.00,,,0.00,WUHU216WMR968SP,2013-02-08 12:13:00,
2013-02-08 07:18:00,13.1,-2.6,30.31,North,0,0.0,0.0,49,0.00,,,0.00,WUHU216WMR968SP,2013-02-08 12:18:00,
2013-02-08 07:23:00,12.9,-2.8,30.31,North,0,0.0,0.0,49,0.00,,,0.00,WUHU216WMR968SP,2013-02-08 12:23:00,
2013-02-08 07:28:00,12.9,-2.8,30.31,North,0,0.0,0.0,49,0.00,,,0.00,WUHU216WMR968SP,2013-02-08 12:28:00,
2013-02-08 07:33:00,12.9,-2.8,30.31,North,0,0.0,0.0,49,0.00,,,0.00,WUHU216WMR968SP,2013-02-08 12:33:00,
2013-02-08 07:38:00,12.9,-2.8,30.31,North,0,0.0,0.0,49,0.00,,,0.00,WUHU216WMR968SP,2013-02-08 12:38:00,
2013-02-08 07:43:00,12.9,-2.8,30.31,North,0,0.0,0.0,49,0.00,,,0.00,WUHU216WMR968SP,2013-02-08 12:43:00,
2013-02-08 07:48:00,13.1,-2.6,30.31,North,0,0.0,0.0,49,0.00,,,0.00,WUHU216WMR968SP,2013-02-08 12:48:00,
2013-02-08 07:53:00,13.6,-2.1,30.31,North,0,0.0,0.0,49,0.00,,,0.00,WUHU216WMR968SP,2013-02-08 12:53:00,
2013-02-08 07:58:00,14.2,1.0,30.31,North,0,0.0,0.0,55,0.00,,,0.00,WUHU216WMR968SP,2013-02-08 12:58:00,
2013-02-08 08:03:00,15.6,2.7,30.31,North,0,0.0,0.0,56,0.00,,,0.00,WUHU216WMR968SP,2013-02-08 13:03:00,
2013-02-08 08:08:00,16.7,3.3,30.31,North,0,0.0,0.0,55,0.00,,,0.00,WUHU216WMR968SP,2013-02-08 13:08:00,
2013-02-08 08:13:00,17.8,3.1,30.31,North,0,0.0,0.0,52,0.00,,,0.00,WUHU216WMR968SP,2013-02-08 13:13:00,
2013-02-08 08:18:00,18.5,3.3,30.31,North,0,0.0,0.0,51,0.00,,,0.00,WUHU216WMR968SP,2013-02-08 13:18:00,
2013-02-08 08:23:00,19.4,3.7,30.31,North,0,0.0,0.0,50,0.00,,,0.00,WUHU216WMR968SP,2013-02-08 13:23:00,
2013-02-08 08:28:00,20.3,4.1,30.31,North,0,0.0,0.0,49,0.00,,,0.00,WUHU216WMR968SP,2013-02-08 13:28:00,
2013-02-08 08:33:00,20.1,1.5,30.31,North,0,0.0,0.0,44,0.00,,,0.00,WUHU216WMR968SP,2013-02-08 13:33:00,
2013-02-08 08:38:00,20.5,2.4,30.31,North,0,0.0,0.0,45,0.00,,,0.00,WUHU216WMR968SP,2013-02-08 13:38:00,
2013-02-08 08:43:00,20.3,1.7,30.31,North,0,0.0,0.0,44,0.00,,,0.00,WUHU216WMR968SP,2013-02-08 13:43:00,
2013-02-08 08:48:00,20.1,1.5,30.31,North,0,0.0,0.0,44,0.00,,,0.00,WUHU216WMR968SP,2013-02-08 13:48:00,
2013-02-08 08:53:00,20.1,1.0,30.29,North,0,0.0,0.0,43,0.00,,,0.00,WUHU216WMR968SP,2013-02-08 13:53:00,
2013-02-08 08:58:00,19.8,1.2,30.29,North,0,0.0,0.0,44,0.00,,,0.00,WUHU216WMR968SP,2013-02-08 13:58:00,
2013-02-08 09:03:00,18.9,0.4,30.29,North,0,0.0,0.0,44,0.00,,,0.00,WUHU216WMR968SP,2013-02-08 14:03:00,
2013-02-08 09:08:00,19.2,1.2,30.29,North,0,0.0,0.0,45,0.00,,,0.00,WUHU216WMR968SP,2013-02-08 14:08:00,
2013-02-08 09:13:00,20.3,1.7,30.29,North,0,0.0,0.0,44,0.00,,,0.00,WUHU216WMR968SP,2013-02-08 14:13:00,
2013-02-08 09:18:00,22.3,4.0,30.29,North,0,0.0,0.0,45,0.00,,,0.00,WUHU216WMR968SP,2013-02-08 14:18:00,
2013-02-08 09:23:00,22.5,3.2,30.29,North,0,0.0,0.0,43,0.00,,,0.00,WUHU216WMR968SP,2013-02-08 14:23:00,
2013-02-08 09:28:00,21.9,2.1,30.29,North,0,0.0,0.0,42,0.00,,,0.00,WUHU216WMR968SP,2013-02-08 14:28:00,
2013-02-08 09:33:00,22.5,3.2,30.29,North,0,0.0,0.0,43,0.00,,,0.00,WUHU216WMR968SP,2013-02-08 14:33:00,
2013-02-08 09:38:00,22.8,1.9,30.26,North,0,0.0,0.0,40,0.00,,,0.00,WUHU216WMR968SP,2013-02-08 14:38:00,
2013-02-08 09:43:00,20.3,-0.4,30.26,North,0,0.0,0.0,40,0.00,,,0.00,WUHU216WMR968SP,2013-02-08 14:43:00,
2013-02-08 09:48:00,18.7,-0.3,30.26,North,0,0.0,0.0,43,0.00,,,0.00,WUHU216WMR968SP,2013-02-08 14:48:00,
2013-02-08 09:53:00,19.0,0.0,30.29,North,0,0.0,0.0,43,0.00,,,0.00,WUHU216WMR968SP,2013-02-08 14:53:00,
2013-02-08 09:58:00,19.0,0.5,30.29,North,0,0.0,0.0,44,0.00,,,0.00,WUHU216WMR968SP,2013-02-08 14:58:00,
2013-02-08 10:03:00,18.5,-0.4,30.29,North,0,0.0,0.0,43,0.00,,,0.00,WUHU216WMR968SP,2013-02-08 15:03:00,
2013-02-08 10:08:00,17.8,-0.6,30.26,North,0,0.0,0.0,44,0.00,,,0.00,WUHU216WMR968SP,2013-02-08 15:08:00,
2013-02-08 10:13:00,18.1,-0.3,30.26,North,0,0.0,0.0,44,0.00,,,0.00,WUHU216WMR968SP,2013-02-08 15:13:00,
2013-02-08 10:18:00,18.9,0.4,30.26,North,0,0.0,0.0,44,0.00,,,0.00,WUHU216WMR968SP,2013-02-08 15:18:00,
2013-02-08 10:23:00,19.0,0.5,30.26,North,0,0.0,0.0,44,0.00,,,0.00,WUHU216WMR968SP,2013-02-08 15:23:00,
2013-02-08 10:28:00,18.7,0.2,30.26,North,0,0.0,0.0,44,0.00,,,0.00,WUHU216WMR968SP,2013-02-08 15:28:00,
2013-02-08 10:33:00,18.7,0.2,30.26,North,0,0.0,0.0,44,0.00,,,0.00,WUHU216WMR968SP,2013-02-08 15:33:00,
2013-02-08 10:38:00,18.3,-0.6,30.26,North,0,0.0,0.0,43,0.00,,,0.00,WUHU216WMR968SP,2013-02-08 15:38:00,
2013-02-08 10:43:00,16.5,-1.8,30.26,North,0,0.0,0.0,44,0.00,,,0.00,WUHU216WMR968SP,2013-02-08 15:43:00,
2013-02-08 10:48:00,16.2,-1.6,30.26,North,0,0.0,0.0,45,0.00,,,0.00,WUHU216WMR968SP,2013-02-08 15:48:00,
2013-02-08 10:53:00,16.2,-1.6,30.26,North,0,0.0,0.0,45,0.00,,,0.00,WUHU216WMR968SP,2013-02-08 15:53:00,
2013-02-08 10:58:00,16.2,-1.1,30.26,North,0,0.0,0.0,46,0.00,,,0.00,WUHU216WMR968SP,2013-02-08 15:58:00,
2013-02-08 11:03:00,16.3,-1.0,30.26,North,0,0.0,0.0,46,0.00,,,0.00,WUHU216WMR968SP,2013-02-08 16:03:00,
2013-02-08 11:08:00,16.5,-0.8,30.26,North,0,0.0,0.0,46,0.00,,,0.00,WUHU216WMR968SP,2013-02-08 16:08:00,
2013-02-08 11:13:00,16.3,-1.0,30.26,North,0,0.0,0.0,46,0.00,,,0.00,WUHU216WMR968SP,2013-02-08 16:13:00,
2013-02-08 11:18:00,16.2,-1.1,30.26,North,0,0.0,0.0,46,0.00,,,0.00,WUHU216WMR968SP,2013-02-08 16:18:00,
2013-02-08 11:23:00,17.1,0.2,30.26,North,0,0.0,0.0,47,0.00,,,0.00,WUHU216WMR968SP,2013-02-08 16:23:00,
2013-02-08 11:28:00,17.8,0.4,30.26,North,0,0.0,0.0,46,0.00,,,0.00,WUHU216WMR968SP,2013-02-08 16:28:00,
2013-02-08 11:33:00,18.0,0.1,30.26,North,0,0.0,0.0,45,0.00,,,0.00,WUHU216WMR968SP,2013-02-08 16:33:00,
2013-02-08 11:38:00,17.2,-0.6,30.23,North,0,0.0,0.0,45,0.00,,,0.00,WUHU216WMR968SP,2013-02-08 16:38:00,
2013-02-08 11:43:00,17.4,0.0,30.23,North,0,0.0,0.0,46,0.00,,,0.00,WUHU216WMR968SP,2013-02-08 16:43:00,
2013-02-08 11:48:00,16.9,-0.4,30.23,North,0,0.0,0.0,46,0.00,,,0.00,WUHU216WMR968SP,2013-02-08 16:48:00,
2013-02-08 11:53:00,16.7,-0.6,30.23,North,0,0.0,0.0,46,0.00,,,0.00,WUHU216WMR968SP,2013-02-08 16:53:00,
2013-02-08 11:58:00,16.9,-0.4,30.23,North,0,0.0,0.0,46,0.00,,,0.00,WUHU216WMR968SP,2013-02-08 16:58:00,
2013-02-08 12:03:00,17.2,-0.2,30.23,North,0,0.0,0.0,46,0.00,,,0.00,WUHU216WMR968SP,2013-02-08 17:03:00,
2013-02-08 12:08:00,17.6,0.7,30.20,North,0,0.0,0.0,47,0.00,,,0.00,WUHU216WMR968SP,2013-02-08 17:08:00,
2013-02-08 12:13:00,17.4,0.0,30.20,North,0,0.0,0.0,46,0.00,,,0.00,WUHU216WMR968SP,2013-02-08 17:13:00,
2013-02-08 12:18:00,17.2,0.3,30.20,North,0,0.0,0.0,47,0.00,,,0.00,WUHU216WMR968SP,2013-02-08 17:18:00,
2013-02-08 12:23:00,17.6,0.7,30.20,North,0,0.0,0.0,47,0.00,,,0.00,WUHU216WMR968SP,2013-02-08 17:23:00,
2013-02-08 12:28:00,17.6,0.7,30.20,North,0,0.0,0.0,47,0.00,,,0.00,WUHU216WMR968SP,2013-02-08 17:28:00,
2013-02-08 12:33:00,17.1,0.2,30.20,North,0,0.0,0.0,47,0.00,,,0.00,WUHU216WMR968SP,2013-02-08 17:33:00,
2013-02-08 12:38:00,17.1,0.7,30.17,North,0,0.0,0.0,48,0.00,,,0.00,WUHU216WMR968SP,2013-02-08 17:38:00,
2013-02-08 12:43:00,17.1,0.7,30.17,North,0,0.0,0.0,48,0.00,,,0.00,WUHU216WMR968SP,2013-02-08 17:43:00,
2013-02-08 12:48:00,16.9,0.9,30.17,North,0,0.0,0.0,49,0.00,,,0.00,WUHU216WMR968SP,2013-02-08 17:48:00,
2013-02-08 12:53:00,16.7,1.2,30.17,North,0,0.0,0.0,50,0.00,,,0.00,WUHU216WMR968SP,2013-02-08 17:53:00,
2013-02-08 12:58:00,17.1,2.0,30.17,North,0,0.0,0.0,51,0.00,,,0.00,WUHU216WMR968SP,2013-02-08 17:58:00,
2013-02-08 13:03:00,16.9,1.8,30.17,North,0,0.0,0.0,51,0.00,,,0.00,WUHU216WMR968SP,2013-02-08 18:03:00,
2013-02-08 13:08:00,16.9,2.3,30.17,North,0,0.0,0.0,52,0.00,,,0.00,WUHU216WMR968SP,2013-02-08 18:08:00,
2013-02-08 13:13:00,17.4,3.1,30.17,North,0,0.0,0.0,53,0.00,,,0.00,WUHU216WMR968SP,2013-02-08 18:13:00,
2013-02-08 13:18:00,17.6,2.9,30.17,North,0,0.0,0.0,52,0.00,,,0.00,WUHU216WMR968SP,2013-02-08 18:18:00,
2013-02-08 13:23:00,17.8,2.7,30.17,North,0,0.0,0.0,51,0.00,,,0.00,WUHU216WMR968SP,2013-02-08 18:23:00,
2013-02-08 13:28:00,17.8,2.7,30.17,North,0,0.0,0.0,51,0.00,,,0.00,WUHU216WMR968SP,2013-02-08 18:28:00,
2013-02-08 13:34:00,17.8,3.1,30.17,North,0,0.0,0.0,52,0.00,,,0.00,WUHU216WMR968SP,2013-02-08 18:34:00,
2013-02-08 13:39:00,18.3,3.6,30.14,North,0,0.0,0.0,52,0.00,,,0.00,WUHU216WMR968SP,2013-02-08 18:39:00,
2013-02-08 13:44:00,18.5,3.3,30.14,North,0,0.0,0.0,51,0.00,,,0.00,WUHU216WMR968SP,2013-02-08 18:44:00,
2013-02-08 13:49:00,18.5,3.3,30.14,North,0,0.0,0.0,51,0.00,,,0.00,WUHU216WMR968SP,2013-02-08 18:49:00,
2013-02-08 13:54:00,18.5,3.3,30.14,North,0,0.0,0.0,51,0.00,,,0.00,WUHU216WMR968SP,2013-02-08 18:54:00,
2013-02-08 13:59:00,18.5,3.7,30.14,North,0,0.0,0.0,52,0.00,,,0.00,WUHU216WMR968SP,2013-02-08 18:59:00,
2013-02-08 14:04:00,18.7,3.9,30.14,North,0,0.0,0.0,52,0.00,,,0.00,WUHU216WMR968SP,2013-02-08 19:04:00,
2013-02-08 14:09:00,19.0,4.2,30.11,North,0,0.0,0.0,52,0.00,,,0.00,WUHU216WMR968SP,2013-02-08 19:09:00,
2013-02-08 14:14:00,19.0,4.2,30.11,North,0,0.0,0.0,52,0.00,,,0.00,WUHU216WMR968SP,2013-02-08 19:14:00,
2013-02-08 14:19:00,18.7,4.4,30.11,North,0,0.0,0.0,53,0.00,,,0.00,WUHU216WMR968SP,2013-02-08 19:19:00,
2013-02-08 14:24:00,18.9,4.5,30.11,North,0,0.0,0.0,53,0.00,,,0.00,WUHU216WMR968SP,2013-02-08 19:24:00,
2013-02-08 14:29:00,18.9,4.5,30.11,North,0,0.0,0.0,53,0.00,,,0.00,WUHU216WMR968SP,2013-02-08 19:29:00,
2013-02-08 14:34:00,19.0,4.6,30.11,North,0,0.0,0.0,53,0.00,,,0.00,WUHU216WMR968SP,2013-02-08 19:34:00,
2013-02-08 14:39:00,18.9,4.5,30.11,North,0,0.0,0.0,53,0.00,,,0.00,WUHU216WMR968SP,2013-02-08 19:39:00,
2013-02-08 14:44:00,19.0,4.6,30.11,North,0,0.0,0.0,53,0.00,,,0.00,WUHU216WMR968SP,2013-02-08 19:44:00,
2013-02-08 14:49:00,18.5,4.2,30.11,North,0,0.0,0.0,53,0.00,,,0.00,WUHU216WMR968SP,2013-02-08 19:49:00,
2013-02-08 14:54:00,18.5,4.2,30.11,North,0,0.0,0.0,53,0.00,,,0.00,WUHU216WMR968SP,2013-02-08 19:54:00,
2013-02-08 14:59:00,18.1,3.8,30.11,North,0,0.0,0.0,53,0.00,,,0.00,WUHU216WMR968SP,2013-02-08 19:59:00,
2013-02-08 15:04:00,18.1,4.2,30.11,North,0,0.0,0.0,54,0.00,,,0.00,WUHU216WMR968SP,2013-02-08 20:04:00,
2013-02-08 15:09:00,18.1,4.2,30.08,North,0,0.0,0.0,54,0.00,,,0.00,WUHU216WMR968SP,2013-02-08 20:09:00,
2013-02-08 15:14:00,18.1,4.6,30.08,North,0,0.0,0.0,55,0.00,,,0.00,WUHU216WMR968SP,2013-02-08 20:14:00,
2013-02-08 15:19:00,18.0,4.9,30.08,North,0,0.0,0.0,56,0.00,,,0.00,WUHU216WMR968SP,2013-02-08 20:19:00,
2013-02-08 15:24:00,18.1,5.4,30.08,North,0,0.0,0.0,57,0.00,,,0.00,WUHU216WMR968SP,2013-02-08 20:24:00,
2013-02-08 15:29:00,18.3,5.6,30.08,North,0,0.0,0.0,57,0.00,,,0.00,WUHU216WMR968SP,2013-02-08 20:29:00,
2013-02-08 15:34:00,18.5,6.2,30.08,North,0,0.0,0.0,58,0.00,,,0.00,WUHU216WMR968SP,2013-02-08 20:34:00,
2013-02-08 15:39:00,18.5,5.8,30.08,North,0,0.0,0.0,57,0.00,,,0.00,WUHU216WMR968SP,2013-02-08 20:39:00,
2013-02-08 15:44:00,18.5,5.8,30.08,North,0,0.0,0.0,57,0.00,,,0.00,WUHU216WMR968SP,2013-02-08 20:44:00,
2013-02-08 15:49:00,18.9,6.2,30.08,North,0,0.0,0.0,57,0.00,,,0.00,WUHU216WMR968SP,2013-02-08 20:49:00,
2013-02-08 15:54:00,18.5,5.8,30.08,North,0,0.0,0.0,57,0.00,,,0.00,WUHU216WMR968SP,2013-02-08 20:54:00,
2013-02-08 16:00:00,18.3,6.0,30.08,North,0,0.0,0.0,58,0.00,,,0.00,WUHU216WMR968SP,2013-02-08 21:00:00,
2013-02-08 16:05:00,18.3,6.0,30.08,North,0,0.0,0.0,58,0.00,,,0.00,WUHU216WMR968SP,2013-02-08 21:05:00,
2013-02-08 16:10:00,18.1,6.2,30.05,North,0,0.0,0.0,59,0.00,,,0.00,WUHU216WMR968SP,2013-02-08 21:10:00,
2013-02-08 16:15:00,18.3,6.8,30.05,North,0,0.0,0.0,60,0.00,,,0.00,WUHU216WMR968SP,2013-02-08 21:15:00,
2013-02-08 16:20:00,18.3,6.8,30.05,North,0,0.0,0.0,60,0.00,,,0.00,WUHU216WMR968SP,2013-02-08 21:20:00,
2013-02-08 16:25:00,18.3,6.4,30.05,North,0,0.0,0.0,59,0.00,,,0.00,WUHU216WMR968SP,2013-02-08 21:25:00,
2013-02-08 16:30:00,18.0,5.7,30.05,North,0,0.0,0.0,58,0.00,,,0.00,WUHU216WMR968SP,2013-02-08 21:30:00,
2013-02-08 16:35:00,17.6,5.7,30.05,North,0,0.0,0.0,59,0.00,,,0.00,WUHU216WMR968SP,2013-02-08 21:35:00,
2013-02-08 16:40:00,17.4,5.5,30.05,North,0,0.0,0.0,59,0.00,,,0.00,WUHU216WMR968SP,2013-02-08 21:40:00,
2013-02-08 16:45:00,17.4,5.9,30.05,North,0,0.0,0.0,60,0.00,,,0.00,WUHU216WMR968SP,2013-02-08 21:45:00,
2013-02-08 16:50:00,17.4,5.9,30.05,North,0,0.0,0.0,60,0.00,,,0.00,WUHU216WMR968SP,2013-02-08 21:50:00,
2013-02-08 16:55:00,17.1,5.3,30.02,North,0,0.0,0.0,59,0.00,,,0.00,WUHU216WMR968SP,2013-02-08 21:55:00,
2013-02-08 17:00:00,17.1,5.3,30.02,North,0,0.0,0.0,59,0.00,,,0.00,WUHU216WMR968SP,2013-02-08 22:00:00,
2013-02-08 17:05:00,16.9,5.1,30.02,North,0,0.0,0.0,59,0.00,,,0.00,WUHU216WMR968SP,2013-02-08 22:05:00,
2013-02-08 17:10:00,16.7,5.2,30.02,North,0,0.0,0.0,60,0.00,,,0.00,WUHU216WMR968SP,2013-02-08 22:10:00,
2013-02-08 17:15:00,16.5,5.1,30.02,North,0,0.0,0.0,60,0.00,,,0.00,WUHU216WMR968SP,2013-02-08 22:15:00,
2013-02-08 17:20:00,16.5,5.4,30.02,North,0,0.0,0.0,61,0.00,,,0.00,WUHU216WMR968SP,2013-02-08 22:20:00,
2013-02-08 17:25:00,16.7,5.6,30.02,North,0,0.0,0.0,61,0.00,,,0.00,WUHU216WMR968SP,2013-02-08 22:25:00,
2013-02-08 17:30:00,16.7,5.6,30.02,North,0,0.0,0.0,61,0.00,,,0.00,WUHU216WMR968SP,2013-02-08 22:30:00,
2013-02-08 17:35:00,16.7,5.2,30.02,North,0,0.0,0.0,60,0.00,,,0.00,WUHU216WMR968SP,2013-02-08 22:35:00,
2013-02-08 17:40:00,16.7,5.2,30.02,North,0,0.0,0.0,60,0.00,,,0.00,WUHU216WMR968SP,2013-02-08 22:40:00,
2013-02-08 17:45:00,16.7,5.6,30.02,North,0,0.0,0.0,61,0.00,,,0.00,WUHU216WMR968SP,2013-02-08 22:45:00,
2013-02-08 17:50:00,16.7,5.2,30.02,North,0,0.0,0.0,60,0.00,,,0.00,WUHU216WMR968SP,2013-02-08 22:50:00,
2013-02-08 17:55:00,16.5,5.1,30.02,North,0,0.0,0.0,60,0.00,,,0.00,WUHU216WMR968SP,2013-02-08 22:55:00,
2013-02-08 18:00:00,16.7,5.2,30.02,North,0,0.0,0.0,60,0.00,,,0.00,WUHU216WMR968SP,2013-02-08 23:00:00,
2013-02-08 18:05:00,16.7,5.2,30.02,North,0,0.0,0.0,60,0.00,,,0.00,WUHU216WMR968SP,2013-02-08 23:05:00,
2013-02-08 18:10:00,16.7,5.2,29.99,North,0,0.0,0.0,60,0.00,,,0.00,WUHU216WMR968SP,2013-02-08 23:10:00,
2013-02-08 18:15:00,16.7,5.2,29.99,North,0,0.0,0.0,60,0.00,,,0.00,WUHU216WMR968SP,2013-02-08 23:15:00,
2013-02-08 18:20:00,16.5,5.1,29.99,North,0,0.0,0.0,60,0.00,,,0.00,WUHU216WMR968SP,2013-02-08 23:20:00,
2013-02-08 18:25:00,16.5,5.1,29.99,North,0,0.0,0.0,60,0.00,,,0.00,WUHU216WMR968SP,2013-02-08 23:25:00,
2013-02-08 18:30:00,16.3,4.9,29.99,North,0,0.0,0.0,60,0.00,,,0.00,WUHU216WMR968SP,2013-02-08 23:30:00,
2013-02-08 18:35:00,16.3,5.2,29.99,North,0,0.0,0.0,61,0.00,,,0.00,WUHU216WMR968SP,2013-02-08 23:35:00,
2013-02-08 18:40:00,16.3,5.2,29.99,North,0,0.0,0.0,61,0.00,,,0.00,WUHU216WMR968SP,2013-02-08 23:40:00,
2013-02-08 18:45:00,16.3,5.2,29.99,North,0,0.0,0.0,61,0.00,,,0.00,WUHU216WMR968SP,2013-02-08 23:45:00,
2013-02-08 18:50:00,16.2,5.5,29.99,North,0,0.0,0.0,62,0.00,,,0.00,WUHU216WMR968SP,2013-02-08 23:50:00,
2013-02-08 18:55:00,16.2,5.9,29.96,North,0,0.0,0.0,63,0.00,,,0.00,WUHU216WMR968SP,2013-02-08 23:55:00,
2013-02-08 19:00:00,16.2,5.9,29.96,North,0,0.0,0.0,63,0.00,,,0.00,WUHU216WMR968SP,2013-02-09 00:00:00,
2013-02-08 19:05:00,16.3,6.3,29.96,North,0,0.0,0.0,64,0.00,,,0.00,WUHU216WMR968SP,2013-02-09 00:05:00,
2013-02-08 19:10:00,16.3,6.3,29.96,North,0,0.0,0.0,64,0.00,,,0.00,WUHU216WMR968SP,2013-02-09 00:10:00,
2013-02-08 19:15:00,16.5,6.5,29.96,North,0,0.0,0.0,64,0.00,,,0.00,WUHU216WMR968SP,2013-02-09 00:15:00,
2013-02-08 19:20:00,16.5,6.1,29.96,North,0,0.0,0.0,63,0.00,,,0.00,WUHU216WMR968SP,2013-02-09 00:20:00,
2013-02-08 19:25:00,16.5,6.1,29.96,North,0,0.0,0.0,63,0.00,,,0.00,WUHU216WMR968SP,2013-02-09 00:25:00,
2013-02-08 19:30:00,16.5,6.1,29.96,North,0,0.0,0.0,63,0.00,,,0.00,WUHU216WMR968SP,2013-02-09 00:30:00,
2013-02-08 19:35:00,16.5,6.1,29.96,North,0,0.0,0.0,63,0.00,,,0.00,WUHU216WMR968SP,2013-02-09 00:35:00,
2013-02-08 19:40:00,16.5,6.1,29.96,North,0,0.0,0.0,63,0.00,,,0.00,WUHU216WMR968SP,2013-02-09 00:40:00,
2013-02-08 19:45:00,16.5,6.1,29.96,North,0,0.0,0.0,63,0.00,,,0.00,WUHU216WMR968SP,2013-02-09 00:45:00,
2013-02-08 19:50:00,16.5,5.8,29.96,North,0,0.0,0.0,62,0.00,,,0.00,WUHU216WMR968SP,2013-02-09 00:50:00,
2013-02-08 19:55:00,16.5,5.8,29.93,North,0,0.0,0.0,62,0.00,,,0.00,WUHU216WMR968SP,2013-02-09 00:55:00,
2013-02-08 20:00:00,16.5,5.8,29.93,North,0,0.0,0.0,62,0.00,,,0.00,WUHU216WMR968SP,2013-02-09 01:00:00,
2013-02-08 20:05:00,16.5,5.8,29.93,North,0,0.0,0.0,62,0.00,,,0.00,WUHU216WMR968SP,2013-02-09 01:05:00,
2013-02-08 20:10:00,16.3,5.6,29.93,North,0,0.0,0.0,62,0.00,,,0.00,WUHU216WMR968SP,2013-02-09 01:10:00,
2013-02-08 20:15:00,16.3,5.6,29.93,North,0,0.0,0.0,62,0.00,,,0.00,WUHU216WMR968SP,2013-02-09 01:15:00,
2013-02-08 20:20:00,16.3,5.6,29.93,North,0,0.0,0.0,62,0.00,,,0.00,WUHU216WMR968SP,2013-02-09 01:20:00,
2013-02-08 20:26:00,16.3,5.6,29.93,North,0,0.0,0.0,62,0.00,,,0.00,WUHU216WMR968SP,2013-02-09 01:26:00,
2013-02-08 20:31:00,16.3,5.6,29.93,North,0,0.0,0.0,62,0.00,,,0.00,WUHU216WMR968SP,2013-02-09 01:31:00,
2013-02-08 20:36:00,16.2,5.1,29.93,North,0,0.0,0.0,61,0.00,,,0.00,WUHU216WMR968SP,2013-02-09 01:36:00,
2013-02-08 20:41:00,16.2,5.1,29.93,North,0,0.0,0.0,61,0.00,,,0.00,WUHU216WMR968SP,2013-02-09 01:41:00,
2013-02-08 20:46:00,16.2,5.5,29.93,North,0,0.0,0.0,62,0.00,,,0.00,WUHU216WMR968SP,2013-02-09 01:46:00,
2013-02-08 20:51:00,16.2,5.1,29.90,North,0,0.0,0.0,61,0.00,,,0.00,WUHU216WMR968SP,2013-02-09 01:51:00,
2013-02-08 20:56:00,16.2,5.1,29.90,North,0,0.0,0.0,61,0.00,,,0.00,WUHU216WMR968SP,2013-02-09 01:56:00,
2013-02-08 21:01:00,16.2,5.5,29.90,North,0,0.0,0.0,62,0.00,,,0.00,WUHU216WMR968SP,2013-02-09 02:01:00,
2013-02-08 21:06:00,16.2,5.5,29.90,North,0,0.0,0.0,62,0.00,,,0.00,WUHU216WMR968SP,2013-02-09 02:06:00,
2013-02-08 21:11:00,16.2,5.5,29.90,North,0,0.0,0.0,62,0.00,,,0.00,WUHU216WMR968SP,2013-02-09 02:11:00,
2013-02-08 21:16:00,16.0,5.0,29.90,North,0,0.0,0.0,61,0.00,,,0.00,WUHU216WMR968SP,2013-02-09 02:16:00,
2013-02-08 21:21:00,16.0,5.0,29.90,North,0,0.0,0.0,61,0.00,,,0.00,WUHU216WMR968SP,2013-02-09 02:21:00,
2013-02-08 21:26:00,16.0,4.6,29.90,North,0,0.0,0.0,60,0.00,,,0.00,WUHU216WMR968SP,2013-02-09 02:26:00,
2013-02-08 21:31:00,16.0,4.6,29.90,North,0,0.0,0.0,60,0.00,,,0.00,WUHU216WMR968SP,2013-02-09 02:31:00,
2013-02-08 21:36:00,16.0,5.0,29.87,North,0,0.0,0.0,61,0.00,,,0.00,WUHU216WMR968SP,2013-02-09 02:36:00,
2013-02-08 21:41:00,15.8,4.8,29.87,North,0,0.0,0.0,61,0.00,,,0.00,WUHU216WMR968SP,2013-02-09 02:41:00,
2013-02-08 21:46:00,15.8,4.8,29.87,North,0,0.0,0.0,61,0.00,,,0.00,WUHU216WMR968SP,2013-02-09 02:46:00,
2013-02-08 21:51:00,15.6,4.2,29.87,North,0,0.0,0.0,60,0.00,,,0.00,WUHU216WMR968SP,2013-02-09 02:51:00,
2013-02-08 21:56:00,15.4,4.4,29.87,North,0,0.0,0.0,61,0.00,,,0.00,WUHU216WMR968SP,2013-02-09 02:56:00,
2013-02-08 22:01:00,15.4,4.4,29.87,North,0,0.0,0.0,61,0.00,,,0.00,WUHU216WMR968SP,2013-02-09 03:01:00,
2013-02-08 22:06:00,15.4,4.0,29.84,North,0,0.0,0.0,60,0.00,,,0.00,WUHU216WMR968SP,2013-02-09 03:06:00,
2013-02-08 22:11:00,15.4,3.6,29.84,North,0,0.0,0.0,59,0.00,,,0.00,WUHU216WMR968SP,2013-02-09 03:11:00,
2013-02-08 22:16:00,15.4,3.6,29.84,North,0,0.0,0.0,59,0.00,,,0.00,WUHU216WMR968SP,2013-02-09 03:16:00,
2013-02-08 22:21:00,15.4,3.6,29.84,North,0,0.0,0.0,59,0.00,,,0.00,WUHU216WMR968SP,2013-02-09 03:21:00,
2013-02-08 22:26:00,15.6,3.5,29.84,North,0,0.0,0.0,58,0.00,,,0.00,WUHU216WMR968SP,2013-02-09 03:26:00,
2013-02-08 22:31:00,15.8,4.0,29.84,North,0,0.0,0.0,59,0.00,,,0.00,WUHU216WMR968SP,2013-02-09 03:31:00,
2013-02-08 22:36:00,15.8,5.1,29.84,North,0,0.0,0.0,62,0.00,,,0.00,WUHU216WMR968SP,2013-02-09 03:36:00,
2013-02-08 22:41:00,15.8,4.8,29.84,North,0,0.0,0.0,61,0.00,,,0.00,WUHU216WMR968SP,2013-02-09 03:41:00,
2013-02-08 22:46:00,16.0,5.3,29.84,North,0,0.0,0.0,62,0.00,,,0.00,WUHU216WMR968SP,2013-02-09 03:46:00,
2013-02-08 22:51:00,16.2,5.1,29.81,North,0,0.0,0.0,61,0.00,,,0.00,WUHU216WMR968SP,2013-02-09 03:51:00,
2013-02-08 22:56:00,16.2,5.1,29.81,North,0,0.0,0.0,61,0.00,,,0.00,WUHU216WMR968SP,2013-02-09 03:56:00,
2013-02-08 23:01:00,16.2,4.8,29.81,North,0,0.0,0.0,60,0.00,,,0.00,WUHU216WMR968SP,2013-02-09 04:01:00,
2013-02-08 23:06:00,16.3,5.2,29.81,North,0,0.0,0.0,61,0.00,,,0.00,WUHU216WMR968SP,2013-02-09 04:06:00,
2013-02-08 23:11:00,16.5,6.1,29.81,North,0,0.0,0.0,63,0.00,,,0.00,WUHU216WMR968SP,2013-02-09 04:11:00,
2013-02-08 23:16:00,16.5,6.5,29.81,North,0,0.0,0.0,64,0.00,,,0.00,WUHU216WMR968SP,2013-02-09 04:16:00,
2013-02-08 23:21:00,16.7,6.0,29.78,North,0,0.0,0.0,62,0.00,,,0.00,WUHU216WMR968SP,2013-02-09 04:21:00,
2013-02-08 23:26:00,16.7,6.3,29.78,North,0,0.0,0.0,63,0.00,,,0.00,WUHU216WMR968SP,2013-02-09 04:26:00,
2013-02-08 23:32:00,16.7,6.3,29.78,North,0,0.0,0.0,63,0.00,,,0.00,WUHU216WMR968SP,2013-02-09 04:32:00,
2013-02-08 23:37:00,16.7,6.7,29.78,North,0,0.0,0.0,64,0.00,,,0.00,WUHU216WMR968SP,2013-02-09 04:37:00,
2013-02-08 23:42:00,16.7,6.7,29.78,North,0,0.0,0.0,64,0.00,,,0.00,WUHU216WMR968SP,2013-02-09 04:42:00,
2013-02-08 23:47:00,16.7,6.7,29.78,North,0,0.0,0.0,64,0.00,,,0.00,WUHU216WMR968SP,2013-02-09 04:47:00,
2013-02-08 23:52:00,16.7,6.7,29.75,North,0,0.0,0.0,64,0.00,,,0.00,WUHU216WMR968SP,2013-02-09 04:52:00,
2013-02-08 23:57:00,16.7,6.7,29.75,North,0,0.0,0.0,64,0.00,,,0.00,WUHU216WMR968SP,2013-02-09 04:57:00,